Park City, UT

5:43 PM MDT on September 25, 2016 (GMT -0600)
American Saddler | | Change Station

Elev 6867 ft 40.68 °N, 111.51 °W | Updated 2 seconds ago

Clear
Clear
66.2 °F
Feels Like 66.2 °F
N
0.0
Wind Variable Wind from NW

Today
High -- | Low -- °F
--% Chance of Precip.
Yesterday
High -- | Low -- °F
Precip. -- in
Pressure 30.40 in
Visibility 10.0 miles
Clouds Clear
Dew Point 37 °F
Humidity 34%
Rainfall in
Snow Depth Not available.
7:17 AM 7:17 PM
Waning Crescent, 24% visible
METAR K36U 252335Z AUTO 34008KT 10SM CLR 21/M02 A3040 RMK AO2
Pressure 30.40 in
Visibility 10.0 miles
Clouds Clear
Dew Point 37 °F
Humidity 34%
Rainfall in
Snow Depth Not available.
7:17 AM 7:17 PM
Waning Crescent, 24% visible
METAR K36U 252335Z AUTO 34008KT 10SM CLR 21/M02 A3040 RMK AO2

10-Day Weather Forecast

Almanac

Astronomy

Sep. 25, 2016 Rise Set
Actual Time
Civil Twilight
Nautical Twilight
Astronomical Twilight
Moon
Length of Visible Light
Length of Day
Tomorrow will be .
, % of the Moon is Illuminated

Today's Extremes

State Highs State Lows

Community

WunderPhotos

Upload Photos

1,941,780 photos uploaded!

WunderBlog® & News

Nearby

Air Quality

  Air Quality AQ Index Pollutant
Not available.

Snow Depth

Station Depth Elevation

Earthquake Activity

City Distance Mag. Time & Date
Minimum magnitude displayed is 2.5.

Coastal Water Temperatures

Place Temperature

Stations

Nearby Weather Stations

Station Location Temp. Windchill Dew Point Humidity Wind Precip. Elev Updated Type
                   

Watches & Warnings

There are currently no watches in effect.